createdAt,value
2018-12-02T00:00:54.018Z,1.60
2018-12-02T00:03:22.266Z,1.70
2018-12-02T00:05:50.629Z,1.77
2018-12-02T00:08:18.715Z,1.47
2018-12-02T00:10:47.384Z,1.20
2018-12-02T00:13:15.554Z,1.80
2018-12-02T00:15:43.626Z,1.40
2018-12-02T00:18:13.500Z,1.80
2018-12-02T00:20:41.914Z,1.63
2018-12-02T00:23:10.306Z,1.20
2018-12-02T00:25:38.391Z,1.50
2018-12-02T00:28:07.571Z,2.03
2018-12-02T00:30:35.634Z,1.40
2018-12-02T00:33:04.012Z,1.23
2018-12-02T00:35:32.169Z,1.47
2018-12-02T00:38:01.877Z,1.30
2018-12-02T00:40:30.229Z,1.50
2018-12-02T00:42:59.492Z,1.40
2018-12-02T00:45:36.497Z,1.53
2018-12-02T00:48:06.346Z,1.63
2018-12-02T00:50:34.735Z,1.47
2018-12-02T00:53:02.807Z,1.00
2018-12-02T00:55:33.122Z,1.33
2018-12-02T00:58:01.300Z,1.33
2018-12-02T01:00:29.353Z,1.30
2018-12-02T01:02:57.425Z,1.10
2018-12-02T01:05:25.511Z,1.20
2018-12-02T01:07:53.558Z,1.10
2018-12-02T01:10:23.885Z,1.50
2018-12-02T01:12:59.226Z,1.10
2018-12-02T01:15:28.341Z,1.47
2018-12-02T01:17:56.384Z,1.23
2018-12-02T01:20:24.627Z,1.27
2018-12-02T01:22:52.708Z,1.27
2018-12-02T01:25:21.005Z,1.33
2018-12-02T01:27:49.085Z,1.30
2018-12-02T01:30:18.195Z,1.33
2018-12-02T01:32:46.388Z,1.37
2018-12-02T01:35:15.453Z,1.20
2018-12-02T01:37:43.560Z,1.17
2018-12-02T01:40:13.746Z,1.20
2018-12-02T01:42:41.849Z,1.57
2018-12-02T01:45:14.120Z,1.30
2018-12-02T01:47:42.267Z,1.20
2018-12-02T01:50:13.410Z,1.20
2018-12-02T01:52:42.203Z,1.40
2018-12-02T01:55:10.298Z,1.30
2018-12-02T01:57:38.392Z,1.27
2018-12-02T02:00:22.444Z,1.10
2018-12-02T02:02:50.853Z,1.17
2018-12-02T02:05:19.845Z,1.37
2018-12-02T02:07:47.917Z,1.13
2018-12-02T02:10:18.785Z,1.30
2018-12-02T02:12:46.861Z,1.23
2018-12-02T02:15:15.706Z,1.23
2018-12-02T02:17:43.999Z,1.40
2018-12-02T02:20:14.141Z,1.20
2018-12-02T02:22:42.476Z,1.20
2018-12-02T02:25:11.654Z,1.20
2018-12-02T02:27:40.572Z,1.27
2018-12-02T02:30:13.205Z,1.00
2018-12-02T02:32:41.594Z,1.27
2018-12-02T02:35:10.225Z,1.10
2018-12-02T02:37:38.432Z,1.20
2018-12-02T02:40:23.457Z,0.93
2018-12-02T02:42:51.523Z,1.17
2018-12-02T02:45:19.587Z,1.00
2018-12-02T02:47:47.674Z,1.30
2018-12-02T02:50:20.592Z,1.03
2018-12-02T02:52:53.847Z,1.30
2018-12-02T02:55:21.930Z,1.20
2018-12-02T02:57:50.120Z,1.10
2018-12-02T03:00:19.304Z,1.27
2018-12-02T03:02:47.372Z,1.00
2018-12-02T03:05:16.034Z,1.10
2018-12-02T03:07:44.109Z,1.10
2018-12-02T03:10:15.505Z,1.10
2018-12-02T03:12:44.550Z,1.10
2018-12-02T03:15:13.531Z,1.20
2018-12-02T03:17:42.025Z,1.20
2018-12-02T03:20:12.121Z,1.33
2018-12-02T03:22:40.925Z,0.90
2018-12-02T03:25:10.209Z,0.87
2018-12-02T03:27:38.305Z,1.03
2018-12-02T03:30:11.164Z,1.20
2018-12-02T03:32:39.569Z,1.30
2018-12-02T03:35:08.944Z,1.13
2018-12-02T03:37:37.000Z,0.97
2018-12-02T03:40:08.458Z,1.20
2018-12-02T03:42:36.547Z,1.20
2018-12-02T03:45:04.806Z,1.37
2018-12-02T03:47:32.873Z,1.13
2018-12-02T03:50:00.932Z,1.20
2018-12-02T03:52:29.024Z,1.10
2018-12-02T03:54:57.090Z,1.30
2018-12-02T03:57:25.486Z,1.13
2018-12-02T03:59:53.658Z,1.17
2018-12-02T04:02:21.966Z,1.43
2018-12-02T04:04:50.037Z,1.37
2018-12-02T04:07:18.178Z,1.10
2018-12-02T04:12:28.941Z,1.33
2018-12-02T04:14:57.304Z,1.27
2018-12-02T04:17:25.413Z,1.37
2018-12-02T04:19:53.486Z,1.37
2018-12-02T04:22:21.633Z,1.20
2018-12-02T04:24:49.720Z,1.20
2018-12-02T04:27:17.834Z,1.10
2018-12-02T04:29:46.121Z,1.10
2018-12-02T04:32:14.181Z,1.30
2018-12-02T04:34:42.273Z,1.10
2018-12-02T04:37:10.355Z,1.10
2018-12-02T04:39:38.434Z,1.20
2018-12-02T04:42:06.791Z,1.40
2018-12-02T04:44:35.090Z,1.20
2018-12-02T04:47:03.246Z,0.90
2018-12-02T04:49:31.316Z,1.13
2018-12-02T04:51:59.430Z,1.00
2018-12-02T04:54:27.597Z,1.20
2018-12-02T04:56:55.662Z,1.17
2018-12-02T04:59:23.779Z,1.17
2018-12-02T05:01:51.842Z,1.07
2018-12-02T05:04:19.917Z,1.10
2018-12-02T05:06:48.001Z,0.90
2018-12-02T05:09:16.085Z,1.03
2018-12-02T05:11:44.161Z,1.07
2018-12-02T05:14:12.348Z,1.00
2018-12-02T05:16:40.401Z,0.90
2018-12-02T05:19:08.540Z,1.10
2018-12-02T05:21:36.610Z,1.07
2018-12-02T05:24:04.861Z,1.00
2018-12-02T05:26:33.017Z,1.27
2018-12-02T05:29:01.103Z,1.00
2018-12-02T05:31:29.468Z,1.00
2018-12-02T05:33:57.548Z,0.83
2018-12-02T05:36:25.673Z,1.13
2018-12-02T05:38:53.763Z,1.07
2018-12-02T05:41:26.128Z,1.03
2018-12-02T05:43:54.209Z,1.10
2018-12-02T05:46:22.297Z,0.80
2018-12-02T05:48:50.373Z,0.90
2018-12-02T05:51:18.573Z,1.47
2018-12-02T05:53:46.677Z,1.00
2018-12-02T05:56:15.107Z,1.07
2018-12-02T05:58:43.209Z,0.80
2018-12-02T06:01:11.335Z,0.90
2018-12-02T06:03:39.406Z,0.97
2018-12-02T06:06:07.477Z,1.00
2018-12-02T06:08:35.557Z,0.90
2018-12-02T06:11:03.649Z,1.20
2018-12-02T06:13:31.924Z,1.53
2018-12-02T06:16:00.003Z,1.03
2018-12-02T06:18:28.287Z,1.10
2018-12-02T06:20:56.398Z,1.00
2018-12-02T06:23:24.480Z,1.07
2018-12-02T06:25:52.596Z,1.20
2018-12-02T06:28:20.684Z,0.97
2018-12-02T06:30:48.800Z,1.00
2018-12-02T06:33:16.882Z,1.00
2018-12-02T06:35:44.969Z,1.40
2018-12-02T06:38:13.069Z,1.07
2018-12-02T06:40:41.166Z,1.07
2018-12-02T06:43:09.257Z,1.10
2018-12-02T06:45:37.479Z,1.30
2018-12-02T06:48:05.785Z,0.97
2018-12-02T06:50:33.883Z,0.83
2018-12-02T06:53:01.948Z,1.00
2018-12-02T06:55:42.847Z,0.93
2018-12-02T06:58:13.473Z,1.10
2018-12-02T07:01:03.456Z,1.00
2018-12-02T07:03:38.337Z,1.00
2018-12-02T07:06:06.817Z,0.90
2018-12-02T07:08:34.898Z,1.20
2018-12-02T07:11:03.055Z,1.07
2018-12-02T07:13:31.138Z,1.00
2018-12-02T07:15:59.204Z,0.67
2018-12-02T07:18:28.394Z,1.00
2018-12-02T07:20:56.573Z,1.17
2018-12-02T07:23:24.657Z,0.93
2018-12-02T07:25:52.919Z,1.17
2018-12-02T07:28:21.013Z,1.10
2018-12-02T07:30:49.080Z,1.27
2018-12-02T07:33:17.184Z,1.27
2018-12-02T07:35:45.276Z,0.90
2018-12-02T07:40:32.122Z,1.20
2018-12-02T07:43:00.413Z,1.00
2018-12-02T07:45:28.522Z,1.10
2018-12-02T07:47:56.634Z,1.23
2018-12-02T07:50:24.718Z,1.00
2018-12-02T07:52:52.816Z,1.20
2018-12-02T07:55:20.888Z,1.30
2018-12-02T07:57:48.961Z,1.13
2018-12-02T08:00:17.286Z,1.00
2018-12-02T08:02:45.357Z,0.97
2018-12-02T08:05:15.430Z,1.00
2018-12-02T08:07:44.227Z,1.10
2018-12-02T08:10:14.425Z,0.70
2018-12-02T08:12:42.502Z,1.37
2018-12-02T08:15:12.843Z,0.87
2018-12-02T08:17:40.916Z,1.30
2018-12-02T08:20:11.138Z,1.03
2018-12-02T08:22:39.286Z,1.30
2018-12-02T08:25:13.737Z,1.10
2018-12-02T08:27:42.275Z,1.00
2018-12-02T08:30:14.589Z,1.10
2018-12-02T08:32:42.684Z,1.00
2018-12-02T08:35:11.556Z,1.00
2018-12-02T08:37:40.664Z,1.00
2018-12-02T08:40:10.878Z,0.90
2018-12-02T08:42:39.286Z,1.00
2018-12-02T08:45:10.037Z,0.97
2018-12-02T08:47:38.209Z,0.80
2018-12-02T08:50:09.301Z,1.43
2018-12-02T08:52:37.371Z,0.93
2018-12-02T08:55:06.676Z,0.90
2018-12-02T08:57:34.749Z,1.40
2018-12-02T09:00:02.976Z,0.93
2018-12-02T09:02:31.085Z,1.00
2018-12-02T09:04:59.172Z,1.10
2018-12-02T09:07:27.256Z,0.83
2018-12-02T09:09:59.549Z,0.83
2018-12-02T09:12:23.481Z,0.97
2018-12-02T09:14:51.581Z,1.13
2018-12-02T09:17:19.680Z,0.90
2018-12-02T09:19:47.774Z,1.00
2018-12-02T09:22:15.853Z,1.40
2018-12-02T09:24:43.977Z,1.50
2018-12-02T09:27:12.092Z,1.10
2018-12-02T09:29:40.225Z,2.20
2018-12-02T09:32:08.328Z,1.20
2018-12-02T09:34:36.403Z,1.60
2018-12-02T09:37:05.665Z,1.47
2018-12-02T09:39:33.741Z,1.20
2018-12-02T09:42:01.841Z,1.27
2018-12-02T09:44:30.778Z,1.60
2018-12-02T09:46:58.228Z,1.60
2018-12-02T09:49:26.300Z,1.13
2018-12-02T09:51:54.397Z,1.50
2018-12-02T09:54:23.426Z,1.30
2018-12-02T09:56:50.608Z,1.40
2018-12-02T09:59:18.684Z,1.10
2018-12-02T10:01:46.775Z,1.33
2018-12-02T10:04:14.837Z,1.63
2018-12-02T10:06:42.944Z,1.43
2018-12-02T10:09:11.231Z,1.40
2018-12-02T10:11:39.322Z,1.27
2018-12-02T10:14:07.400Z,1.23
2018-12-02T10:16:35.502Z,1.30
2018-12-02T10:19:03.595Z,2.00
2018-12-02T10:21:31.694Z,2.90
2018-12-02T10:23:59.787Z,2.10
2018-12-02T10:26:27.873Z,1.80
2018-12-02T10:28:56.470Z,1.10
2018-12-02T10:31:24.554Z,1.50
2018-12-02T10:33:53.477Z,2.33
2018-12-02T10:36:21.549Z,2.13
2018-12-02T10:38:49.657Z,3.67
2018-12-02T10:41:17.772Z,3.23
2018-12-02T10:43:45.872Z,4.30
2018-12-02T10:46:13.974Z,3.03
2018-12-02T10:48:42.102Z,2.60
2018-12-02T10:51:10.208Z,2.53
2018-12-02T10:53:38.289Z,3.17
2018-12-02T10:56:06.683Z,2.00
2018-12-02T10:58:35.270Z,2.93
2018-12-02T11:01:09.491Z,2.47
2018-12-02T11:03:37.581Z,2.10
2018-12-02T11:06:05.799Z,2.27
2018-12-02T11:08:33.858Z,2.07
2018-12-02T11:11:01.950Z,2.70
2018-12-02T11:13:30.098Z,2.50
2018-12-02T11:15:58.210Z,2.47
2018-12-02T11:18:26.302Z,2.67
2018-12-02T11:20:54.365Z,2.40
2018-12-02T11:23:22.470Z,2.73
2018-12-02T11:25:50.600Z,3.50
2018-12-02T11:28:18.682Z,2.97
2018-12-02T11:30:46.755Z,3.27
2018-12-02T11:33:14.849Z,2.40
2018-12-02T11:35:42.928Z,2.53
2018-12-02T11:38:11.022Z,2.87
2018-12-02T11:40:40.147Z,2.70
2018-12-02T11:43:08.813Z,2.23
2018-12-02T11:45:37.012Z,3.03
2018-12-02T11:48:06.044Z,2.37
2018-12-02T11:50:34.155Z,2.73
2018-12-02T11:53:02.269Z,2.63
2018-12-02T11:55:30.389Z,2.13
2018-12-02T11:57:58.709Z,3.23
2018-12-02T12:00:27.958Z,2.80
2018-12-02T12:02:56.873Z,2.77
2018-12-02T12:05:25.005Z,3.13
2018-12-02T12:07:53.105Z,2.77
2018-12-02T12:10:22.921Z,2.87
2018-12-02T12:12:51.927Z,3.07
2018-12-02T12:15:22.166Z,3.57
2018-12-02T12:17:50.337Z,2.93
2018-12-02T12:20:19.855Z,2.83
2018-12-02T12:22:47.998Z,2.90
2018-12-02T12:25:16.085Z,2.77
2018-12-02T12:27:44.202Z,2.40
2018-12-02T12:30:15.393Z,2.93
2018-12-02T12:32:43.476Z,3.00
2018-12-02T12:35:15.765Z,3.00
2018-12-02T12:37:43.859Z,2.50
2018-12-02T12:40:13.118Z,2.50
2018-12-02T12:42:42.233Z,2.47
2018-12-02T12:45:11.634Z,2.23
2018-12-02T12:47:40.321Z,2.53
2018-12-02T12:50:10.183Z,2.63
2018-12-02T12:52:38.270Z,2.90
2018-12-02T12:55:08.337Z,2.37
2018-12-02T12:57:36.420Z,2.13
2018-12-02T13:00:12.349Z,2.43
2018-12-02T13:02:40.776Z,2.57
2018-12-02T13:05:10.724Z,2.30
2018-12-02T13:07:43.845Z,2.30
2018-12-02T13:10:12.917Z,2.57
2018-12-02T13:12:41.077Z,2.03
2018-12-02T13:15:12.369Z,2.80
2018-12-02T13:17:40.945Z,2.10
2018-12-02T13:20:10.738Z,2.70
2018-12-02T13:22:38.861Z,2.40
2018-12-02T13:25:08.596Z,3.10
2018-12-02T13:27:36.727Z,2.40
2018-12-02T13:30:09.632Z,2.17
2018-12-02T13:32:37.733Z,2.57
2018-12-02T13:35:06.155Z,2.20
2018-12-02T13:37:34.271Z,2.20
2018-12-02T13:40:02.505Z,2.67
2018-12-02T13:42:30.578Z,2.57
2018-12-02T13:44:58.653Z,2.70
2018-12-02T13:47:26.762Z,1.90
2018-12-02T13:49:54.836Z,2.40
2018-12-02T13:52:22.917Z,2.60
2018-12-02T13:54:51.022Z,2.80
2018-12-02T13:57:19.098Z,2.30
2018-12-02T13:59:47.187Z,2.07
2018-12-02T14:02:15.272Z,2.47
2018-12-02T14:04:43.401Z,1.80
2018-12-02T14:07:11.713Z,2.53
2018-12-02T14:09:39.861Z,2.00
2018-12-02T14:12:07.946Z,1.90
2018-12-02T14:14:38.887Z,2.23
2018-12-02T14:17:10.827Z,2.47
2018-12-02T14:19:39.739Z,2.37
2018-12-02T14:22:07.817Z,2.23
2018-12-02T14:24:36.106Z,1.97
2018-12-02T14:27:04.241Z,2.03
2018-12-02T14:29:34.402Z,1.90
2018-12-02T14:32:09.659Z,2.10
2018-12-02T14:34:37.821Z,2.27
2018-12-02T14:37:06.282Z,2.03
2018-12-02T14:39:34.389Z,2.30
2018-12-02T14:42:02.472Z,2.03
2018-12-02T14:44:30.561Z,2.20
2018-12-02T14:46:58.657Z,3.17
2018-12-02T14:49:26.733Z,2.77
2018-12-02T14:51:54.819Z,1.80
2018-12-02T14:54:22.916Z,1.90
2018-12-02T14:56:51.001Z,2.20
2018-12-02T14:59:19.148Z,2.30
2018-12-02T15:01:47.277Z,1.97
2018-12-02T15:04:15.357Z,1.97
2018-12-02T15:06:43.473Z,1.80
2018-12-02T15:09:11.573Z,1.80
2018-12-02T15:11:39.773Z,2.10
2018-12-02T15:14:10.346Z,2.33
2018-12-02T15:16:38.536Z,1.60
2018-12-02T15:19:07.634Z,1.83
2018-12-02T15:21:35.787Z,2.30
2018-12-02T15:24:03.882Z,1.83
2018-12-02T15:26:31.970Z,1.87
2018-12-02T15:29:00.057Z,1.67
2018-12-02T15:31:28.179Z,1.80
2018-12-02T15:33:56.687Z,1.97
2018-12-02T15:36:24.765Z,1.80
2018-12-02T15:38:53.313Z,1.50
2018-12-02T15:41:21.433Z,2.37
2018-12-02T15:43:49.505Z,1.97
2018-12-02T15:46:17.593Z,1.77
2018-12-02T15:48:45.666Z,1.53
2018-12-02T15:51:13.762Z,2.20
2018-12-02T15:53:41.851Z,1.57
2018-12-02T15:56:09.951Z,1.57
2018-12-02T15:58:38.297Z,1.70
2018-12-02T16:01:06.562Z,1.50
2018-12-02T16:03:34.715Z,1.83
2018-12-02T16:06:02.771Z,1.63
2018-12-02T16:08:30.861Z,1.37
2018-12-02T16:10:58.942Z,1.50
2018-12-02T16:13:27.096Z,1.70
2018-12-02T16:15:55.189Z,1.73
2018-12-02T16:18:23.279Z,1.43
2018-12-02T16:20:52.608Z,1.47
2018-12-02T16:23:25.469Z,1.60
2018-12-02T16:25:53.569Z,1.43
2018-12-02T16:28:22.005Z,1.30
2018-12-02T16:30:52.569Z,1.53
2018-12-02T16:33:20.679Z,1.47
2018-12-02T16:35:48.761Z,1.60
2018-12-02T16:38:16.875Z,1.70
2018-12-02T16:40:45.009Z,1.53
2018-12-02T16:43:13.112Z,1.47
2018-12-02T16:45:41.277Z,1.50
2018-12-02T16:48:10.618Z,1.50
2018-12-02T16:50:40.317Z,1.63
2018-12-02T16:53:13.134Z,1.50
2018-12-02T16:55:47.291Z,1.40
2018-12-02T16:58:51.134Z,1.87
2018-12-02T17:01:21.640Z,1.13
2018-12-02T17:03:51.138Z,1.67
2018-12-02T17:06:19.457Z,1.23
2018-12-02T17:08:47.614Z,1.70
2018-12-02T17:11:15.697Z,1.90
2018-12-02T17:13:43.765Z,1.43
2018-12-02T17:16:11.883Z,1.60
2018-12-02T17:18:39.977Z,1.50
2018-12-02T17:21:08.066Z,1.70
2018-12-02T17:23:36.161Z,1.73
2018-12-02T17:26:04.270Z,1.50
2018-12-02T17:28:32.361Z,1.67
2018-12-02T17:31:07.035Z,1.30
2018-12-02T17:33:35.124Z,1.30
2018-12-02T17:36:03.222Z,1.67
2018-12-02T17:38:31.311Z,1.70
2018-12-02T17:40:59.388Z,1.23
2018-12-02T17:43:27.477Z,1.73
2018-12-02T17:45:55.567Z,1.40
2018-12-02T17:48:23.674Z,1.43
2018-12-02T17:50:51.750Z,2.13
2018-12-02T17:53:19.830Z,1.40
2018-12-02T17:55:47.901Z,1.50
2018-12-02T17:58:16.017Z,1.70
2018-12-02T18:00:44.193Z,1.40
2018-12-02T18:03:16.190Z,1.83
2018-12-02T18:05:45.573Z,1.70
2018-12-02T18:08:13.733Z,1.40
2018-12-02T18:10:41.805Z,1.70
2018-12-02T18:13:09.904Z,1.77
2018-12-02T18:15:37.989Z,1.83
2018-12-02T18:18:06.851Z,1.70
2018-12-02T18:20:34.966Z,1.63
2018-12-02T18:23:03.079Z,1.37
2018-12-02T18:25:31.170Z,1.83
2018-12-02T18:27:59.327Z,1.50
2018-12-02T18:30:28.227Z,1.60
2018-12-02T18:32:57.449Z,1.50
2018-12-02T18:35:30.164Z,1.23
2018-12-02T18:38:32.065Z,1.50
2018-12-02T18:41:04.578Z,1.80
2018-12-02T18:43:32.685Z,2.03
2018-12-02T18:46:00.769Z,1.50
2018-12-02T18:48:28.852Z,1.57
2018-12-02T18:50:56.946Z,1.60
2018-12-02T18:53:25.089Z,1.27
2018-12-02T18:55:53.430Z,2.13
2018-12-02T18:58:22.201Z,1.73
2018-12-02T19:00:50.312Z,1.40
2018-12-02T19:03:20.123Z,1.60
2018-12-02T19:05:49.447Z,2.10
2018-12-02T19:08:17.553Z,2.13
2018-12-02T19:10:47.599Z,2.87
2018-12-02T19:13:15.757Z,3.00
2018-12-02T19:15:43.965Z,2.87
2018-12-02T19:18:12.033Z,2.93
2018-12-02T19:20:40.141Z,2.80
2018-12-02T19:23:10.300Z,3.53
2018-12-02T19:25:38.427Z,3.23
2018-12-02T19:28:06.505Z,2.80
2018-12-02T19:30:34.625Z,2.97
2018-12-02T19:33:02.789Z,2.67
2018-12-02T19:35:34.468Z,2.53
2018-12-02T19:38:07.990Z,2.83
2018-12-02T19:40:36.090Z,2.80
2018-12-02T19:43:04.178Z,2.70
2018-12-02T19:45:32.278Z,2.80
2018-12-02T19:48:00.369Z,2.50
2018-12-02T19:50:28.558Z,3.00
2018-12-02T19:52:56.825Z,2.63
2018-12-02T19:55:25.509Z,2.80
2018-12-02T19:57:53.601Z,2.63
2018-12-02T20:00:26.709Z,2.83
2018-12-02T20:02:55.198Z,2.33
2018-12-02T20:05:23.282Z,2.20
2018-12-02T20:07:53.760Z,2.80
2018-12-02T20:10:27.745Z,2.50
2018-12-02T20:12:57.562Z,2.20
2018-12-02T20:15:25.653Z,2.00
2018-12-02T20:17:54.810Z,2.47
2018-12-02T20:20:28.366Z,2.43
2018-12-02T20:22:56.507Z,2.07
2018-12-02T20:25:25.409Z,2.53
2018-12-02T20:27:57.377Z,2.50
2018-12-02T20:30:25.501Z,2.20
2018-12-02T20:32:53.584Z,2.23
2018-12-02T20:35:21.689Z,2.17
2018-12-02T20:37:49.776Z,2.80
2018-12-02T20:40:19.040Z,2.10
2018-12-02T20:42:47.770Z,1.77
2018-12-02T20:45:16.642Z,1.90
2018-12-02T20:47:44.740Z,1.60
2018-12-02T20:50:14.924Z,2.10
2018-12-02T20:52:43.026Z,2.33
2018-12-02T20:55:16.363Z,1.90
2018-12-02T20:57:44.478Z,2.20
2018-12-02T21:00:19.565Z,2.33
2018-12-02T21:02:52.618Z,2.17
2018-12-02T21:05:29.896Z,2.00
2018-12-02T21:07:57.981Z,2.53
2018-12-02T21:10:26.081Z,2.10
2018-12-02T21:12:54.290Z,2.63
2018-12-02T21:15:22.395Z,2.17
2018-12-02T21:17:50.505Z,2.17
2018-12-02T21:20:18.619Z,2.03
2018-12-02T21:22:46.733Z,2.57
2018-12-02T21:25:23.973Z,2.13
2018-12-02T21:27:52.119Z,2.67
2018-12-02T21:30:21.561Z,2.17
2018-12-02T21:32:49.645Z,1.90
2018-12-02T21:35:17.877Z,2.53
2018-12-02T21:37:46.307Z,2.37
2018-12-02T21:40:15.413Z,1.97
2018-12-02T21:42:43.582Z,2.23
2018-12-02T21:45:13.771Z,2.60
2018-12-02T21:47:44.310Z,2.70
2018-12-02T21:50:16.990Z,2.57
2018-12-02T21:52:45.112Z,2.10
2018-12-02T21:55:13.187Z,2.67
2018-12-02T21:57:41.261Z,2.37
2018-12-02T22:00:18.056Z,2.13
2018-12-02T22:02:46.253Z,2.20
2018-12-02T22:05:14.501Z,1.70
2018-12-02T22:07:42.631Z,2.27
2018-12-02T22:10:12.782Z,2.40
2018-12-02T22:12:40.856Z,2.10
2018-12-02T22:15:09.122Z,2.73
2018-12-02T22:17:37.205Z,2.77
2018-12-02T22:20:08.145Z,2.20
2018-12-02T22:22:36.243Z,2.13
2018-12-02T22:25:04.658Z,1.97
2018-12-02T22:27:32.753Z,2.23
2018-12-02T22:30:00.868Z,2.40
2018-12-02T22:32:28.958Z,1.90
2018-12-02T22:34:57.041Z,2.00
2018-12-02T22:37:25.165Z,1.97
2018-12-02T22:39:53.262Z,2.60
2018-12-02T22:42:21.360Z,2.10
2018-12-02T22:44:49.745Z,1.93
2018-12-02T22:47:17.846Z,1.70
2018-12-02T22:49:45.987Z,2.00
2018-12-02T22:52:14.069Z,2.10
2018-12-02T22:54:42.156Z,2.30
2018-12-02T22:57:10.273Z,1.90
2018-12-02T22:59:38.370Z,2.07
2018-12-02T23:02:13.288Z,2.30
2018-12-02T23:04:40.205Z,1.83
2018-12-02T23:07:08.284Z,2.00
2018-12-02T23:09:36.385Z,2.40
2018-12-02T23:12:04.515Z,1.90
2018-12-02T23:14:32.749Z,2.27
2018-12-02T23:17:22.210Z,2.10
2018-12-02T23:19:50.304Z,2.20
2018-12-02T23:22:18.380Z,1.63
2018-12-02T23:24:46.522Z,1.87
2018-12-02T23:27:14.615Z,2.10
2018-12-02T23:29:42.701Z,1.70
2018-12-02T23:32:10.995Z,1.80
2018-12-02T23:34:39.125Z,2.30
2018-12-02T23:37:07.207Z,2.07
2018-12-02T23:39:35.391Z,2.03
2018-12-02T23:42:03.473Z,1.50
2018-12-02T23:44:31.626Z,1.97
2018-12-02T23:46:59.721Z,1.60
2018-12-02T23:49:27.817Z,1.87
2018-12-02T23:51:55.934Z,2.00
2018-12-02T23:54:24.240Z,1.60
2018-12-02T23:56:52.385Z,1.53
2018-12-02T23:59:20.458Z,1.93
